Time;durP1;ratioP1;P1;durP2;ratioP2;P2;SDS_P1;SDS_P2;PMS_P1;PMS_P2;Temp;Humidity;BMP_temperature;BMP_pressure;BME280_temperature;BME280_humidity;BME280_pressure;Samples;Min_cycle;Max_cycle;Signal;HPM_P1;HPM_P2
2021/04/28 00:00:28;;;;;;;53.35;31.80;;;;;;;4.10;89.32;99063.94;4936120;28;20039;-75
2021/04/28 00:02:56;;;;;;;57.95;30.38;;;;;;;4.15;89.91;99065.97;4938644;28;20027;-74
2021/04/28 00:05:22;;;;;;;56.22;28.80;;;;;;;4.14;90.19;99068.81;4947789;28;20110;-75
2021/04/28 00:07:48;;;;;;;52.63;27.67;;;;;;;4.10;89.87;99065.78;4953726;28;20063;-74
2021/04/28 00:10:17;;;;;;;46.10;28.13;;;;;;;4.07;89.47;99066.22;4948277;28;20027;-75
2021/04/28 00:12:43;;;;;;;52.22;27.48;;;;;;;4.05;90.38;99062.97;4954471;29;20066;-75
2021/04/28 00:15:14;;;;;;;56.50;29.27;;;;;;;4.07;90.07;99064.38;4948882;28;20425;-74
2021/04/28 00:17:40;;;;;;;48.47;27.83;;;;;;;4.05;89.36;99063.75;4944660;28;20118;-74
2021/04/28 00:20:10;;;;;;;49.22;28.23;;;;;;;4.04;89.40;99061.34;4944828;29;20110;-74
2021/04/28 00:22:36;;;;;;;45.63;27.67;;;;;;;4.04;89.82;99059.47;4944267;28;20032;-74
2021/04/28 00:25:06;;;;;;;55.50;28.05;;;;;;;4.03;90.19;99063.16;4942638;28;20091;-72
2021/04/28 00:27:32;;;;;;;53.42;28.50;;;;;;;4.04;90.23;99061.34;4936268;28;21052;-74
2021/04/28 00:29:57;;;;;;;58.05;28.15;;;;;;;4.06;89.46;99057.41;4950979;28;20031;-74
2021/04/28 00:32:23;;;;;;;46.42;27.48;;;;;;;4.03;90.15;99057.03;4942580;28;20100;-74
2021/04/28 00:34:48;;;;;;;42.78;24.75;;;;;;;3.94;89.27;99062.63;4949965;28;20147;-74
2021/04/28 00:37:14;;;;;;;60.85;27.75;;;;;;;3.94;90.10;99059.13;4947345;28;20058;-74
2021/04/28 00:39:40;;;;;;;49.88;26.67;;;;;;;3.93;89.90;99053.00;4937216;28;20643;-74
2021/04/28 00:42:06;;;;;;;46.00;26.40;;;;;;;3.89;89.87;99051.81;4953992;29;20032;-74
2021/04/28 00:44:35;;;;;;;47.45;26.67;;;;;;;3.88;90.24;99060.81;4949130;28;20126;-74
2021/04/28 00:47:01;;;;;;;59.00;29.15;;;;;;;3.88;90.89;99050.16;4943757;28;20040;-74
2021/04/28 00:49:26;;;;;;;53.38;28.73;;;;;;;3.89;90.51;99051.81;4946980;28;20039;-74
2021/04/28 00:51:52;;;;;;;53.45;29.23;;;;;;;3.84;89.75;99053.47;4935072;29;20045;-74
2021/04/28 00:54:20;;;;;;;54.85;29.98;;;;;;;3.83;90.61;99054.50;4941283;28;20062;-75
2021/04/28 00:56:46;;;;;;;56.45;28.80;;;;;;;3.92;89.92;99059.38;4934685;28;20067;-75
2021/04/28 00:59:12;;;;;;;46.75;27.63;;;;;;;3.80;90.03;99045.09;4947088;28;20047;-75
2021/04/28 01:01:39;;;;;;;49.03;28.10;;;;;;;3.76;90.40;99050.03;4949256;28;20027;-75
2021/04/28 01:04:05;;;;;;;47.72;27.30;;;;;;;3.83;90.31;99047.34;4949107;28;20039;-75
2021/04/28 01:06:31;;;;;;;44.42;26.30;;;;;;;3.87;90.24;99043.22;4943922;28;20042;-76
2021/04/28 01:08:57;;;;;;;42.17;26.02;;;;;;;3.86;89.87;99049.56;4947148;28;20032;-74
2021/04/28 01:11:25;;;;;;;41.50;26.98;;;;;;;3.76;89.65;99042.03;4946146;28;20066;-72
2021/04/28 01:13:50;;;;;;;50.53;28.48;;;;;;;3.78;90.63;99039.19;4944199;28;20031;-73
2021/04/28 01:16:16;;;;;;;44.72;28.40;;;;;;;3.79;89.89;99043.47;4941374;28;20452;-76
2021/04/28 01:18:42;;;;;;;52.35;27.02;;;;;;;3.72;90.23;99038.16;4933790;28;20040;-75
2021/04/28 01:21:08;;;;;;;52.05;26.95;;;;;;;3.78;90.46;99031.19;4946574;28;20039;-74
2021/04/28 01:23:34;;;;;;;51.63;27.05;;;;;;;3.77;90.16;99046.34;4949157;28;20065;-74
2021/04/28 01:26:01;;;;;;;47.38;27.02;;;;;;;3.78;90.92;99041.84;4937390;28;20042;-73
2021/04/28 01:28:27;;;;;;;61.63;28.02;;;;;;;3.80;90.31;99037.91;4941827;28;20476;-74
2021/04/28 01:30:53;;;;;;;49.78;27.80;;;;;;;3.83;90.49;99035.84;4947976;28;20035;-74
2021/04/28 01:33:24;;;;;;;49.40;27.45;;;;;;;3.87;90.72;99037.88;4943042;28;20548;-76
2021/04/28 01:35:53;;;;;;;55.65;28.20;;;;;;;3.81;90.63;99039.53;4945422;28;20425;-75
2021/04/28 01:38:22;;;;;;;49.53;27.80;;;;;;;3.80;90.28;99034.44;4938179;28;20038;-75
2021/04/28 01:40:48;;;;;;;45.92;27.90;;;;;;;3.76;90.13;99035.91;4943357;28;20059;-74
2021/04/28 01:43:15;;;;;;;50.30;28.77;;;;;;;3.76;90.35;99030.59;4940609;28;21002;-73
2021/04/28 01:45:42;;;;;;;48.88;28.58;;;;;;;3.75;90.25;99024.44;4937067;29;20110;-75
2021/04/28 01:48:10;;;;;;;55.63;30.02;;;;;;;3.71;90.12;99020.56;4939925;28;20035;-73
2021/04/28 01:50:37;;;;;;;53.78;32.20;;;;;;;3.78;90.54;99024.00;4940976;28;20509;-73
2021/04/28 01:53:03;;;;;;;48.88;31.88;;;;;;;3.74;90.01;99014.81;4936881;28;20095;-74
2021/04/28 01:55:29;;;;;;;57.25;33.25;;;;;;;3.74;91.17;99022.00;4943209;28;20437;-75
2021/04/28 01:57:55;;;;;;;66.78;32.40;;;;;;;3.73;91.42;99025.69;4944316;29;20114;-74
2021/04/28 02:00:22;;;;;;;50.03;29.42;;;;;;;3.80;90.68;99026.47;4941029;28;20040;-75
2021/04/28 02:02:50;;;;;;;50.42;29.85;;;;;;;3.84;90.91;99027.66;4943624;29;20062;-75
2021/04/28 02:05:18;;;;;;;47.33;30.33;;;;;;;3.81;91.50;99023.56;4942618;28;20059;-75
2021/04/28 02:07:45;;;;;;;53.08;28.02;;;;;;;3.86;90.88;99032.75;4928651;29;20041;-75
2021/04/28 02:10:12;;;;;;;46.40;26.30;;;;;;;3.85;90.43;99037.28;4947189;28;20028;-75
2021/04/28 02:12:38;;;;;;;41.22;25.65;;;;;;;3.80;90.55;99029.13;4950046;28;20035;-75
2021/04/28 02:15:07;;;;;;;50.63;24.63;;;;;;;3.79;91.12;99030.97;4943098;28;20437;-76
2021/04/28 02:17:34;;;;;;;43.97;24.20;;;;;;;3.82;90.82;99029.72;4951278;28;20039;-75
2021/04/28 02:20:01;;;;;;;41.83;23.42;;;;;;;3.77;90.84;99035.69;4955932;28;20368;-75
2021/04/28 02:22:28;;;;;;;57.90;23.75;;;;;;;3.83;90.88;99019.88;4951577;28;20504;-75
2021/04/28 02:24:54;;;;;;;54.20;23.02;;;;;;;3.88;90.70;99020.03;4950633;28;20400;-75
2021/04/28 02:27:20;;;;;;;48.10;22.52;;;;;;;3.83;90.26;99020.69;4939454;28;20040;-73
2021/04/28 02:29:45;;;;;;;40.42;21.15;;;;;;;3.68;90.40;99023.66;4951531;28;20031;-73
2021/04/28 02:32:11;;;;;;;38.15;21.05;;;;;;;3.76;91.51;99026.06;4954934;28;20035;-74
2021/04/28 02:34:37;;;;;;;44.35;22.15;;;;;;;3.74;91.02;99019.31;4948309;28;20492;-74
2021/04/28 02:37:04;;;;;;;42.80;23.55;;;;;;;3.71;91.19;99014.44;4946032;29;20035;-74
2021/04/28 02:39:36;;;;;;;46.88;23.08;;;;;;;3.68;91.29;99017.53;4950143;28;20136;-72
2021/04/28 02:42:04;;;;;;;45.78;22.23;;;;;;;3.69;90.83;99009.31;4946264;28;20047;-75
2021/04/28 02:44:31;;;;;;;46.58;23.77;;;;;;;3.69;91.32;99009.31;4943690;28;21411;-75
2021/04/28 02:46:59;;;;;;;44.05;23.25;;;;;;;3.64;91.26;99015.28;4949447;28;20043;-73
2021/04/28 02:49:26;;;;;;;47.33;23.00;;;;;;;3.59;91.17;99011.63;4949711;28;20039;-75
2021/04/28 02:51:53;;;;;;;42.88;23.45;;;;;;;3.62;91.18;99012.03;4940112;28;20477;-72
2021/04/28 02:54:20;;;;;;;48.08;23.15;;;;;;;3.65;90.86;99021.41;4951814;28;20034;-73
2021/04/28 02:56:49;;;;;;;43.97;22.58;;;;;;;3.61;91.26;99013.06;4942244;28;20031;-75
2021/04/28 02:59:17;;;;;;;35.75;20.75;;;;;;;3.61;91.07;99010.41;4934401;29;20137;-75
2021/04/28 03:01:43;;;;;;;36.15;21.70;;;;;;;3.55;91.32;99003.28;4943843;28;20091;-72
2021/04/28 03:04:09;;;;;;;36.20;21.17;;;;;;;3.53;90.71;98999.97;4950384;28;20043;-72
2021/04/28 03:06:36;;;;;;;39.70;20.92;;;;;;;3.55;91.07;99005.09;4931766;29;20122;-75
2021/04/28 03:09:03;;;;;;;32.40;20.15;;;;;;;3.57;90.87;99000.38;4946778;28;20504;-75
2021/04/28 03:11:29;;;;;;;38.17;20.45;;;;;;;3.53;90.98;99005.31;4953456;28;20738;-74
2021/04/28 03:13:55;;;;;;;35.67;19.50;;;;;;;3.59;90.25;99000.97;4934069;28;20056;-73
2021/04/28 03:16:22;;;;;;;38.72;20.83;;;;;;;3.53;91.17;98997.31;4946967;28;20035;-74
2021/04/28 03:18:47;;;;;;;33.70;18.98;;;;;;;3.58;90.74;98994.84;4947742;28;20050;-74
2021/04/28 03:21:15;;;;;;;35.72;21.10;;;;;;;3.57;90.76;98997.72;4953860;28;20106;-75
2021/04/28 03:23:41;;;;;;;38.38;20.85;;;;;;;3.56;91.23;98996.91;4942780;28;20034;-75
2021/04/28 03:26:10;;;;;;;34.63;18.92;;;;;;;3.57;90.63;98995.88;4950588;28;20039;-74
2021/04/28 03:28:36;;;;;;;32.90;19.27;;;;;;;3.52;90.20;98990.34;4943860;28;20038;-73
2021/04/28 03:31:02;;;;;;;34.90;20.83;;;;;;;3.57;90.73;98984.41;4953499;28;20070;-73
2021/04/28 03:33:28;;;;;;;34.55;19.45;;;;;;;3.57;91.13;98998.53;4951447;28;20035;-73
2021/04/28 03:35:53;;;;;;;33.25;19.95;;;;;;;3.58;90.84;98994.84;4948589;28;20433;-74
2021/04/28 03:38:19;;;;;;;35.33;19.73;;;;;;;3.60;90.97;98990.13;4952409;28;20474;-74
2021/04/28 03:40:45;;;;;;;39.67;20.75;;;;;;;3.62;91.03;98987.22;4953237;28;20501;-74
2021/04/28 03:43:11;;;;;;;38.88;20.42;;;;;;;3.61;90.76;98991.75;4950085;28;20114;-73
2021/04/28 03:45:37;;;;;;;41.30;21.35;;;;;;;3.60;91.12;98992.78;4948397;28;20035;-73
2021/04/28 03:48:03;;;;;;;39.88;22.10;;;;;;;3.58;91.03;98986.03;4950379;28;20019;-73
2021/04/28 03:50:28;;;;;;;39.33;21.40;;;;;;;3.60;90.65;98989.28;4952386;28;20130;-73
2021/04/28 03:52:54;;;;;;;39.38;22.40;;;;;;;3.62;90.60;98981.91;4948008;28;20111;-72
2021/04/28 03:55:19;;;;;;;39.22;21.48;;;;;;;3.62;90.93;98977.41;4950201;28;20066;-73
2021/04/28 03:57:45;;;;;;;37.83;22.30;;;;;;;3.59;90.93;98977.84;4944003;28;20041;-73
2021/04/28 04:00:11;;;;;;;41.70;22.90;;;;;;;3.63;90.67;98978.22;4952602;29;20412;-73
2021/04/28 04:02:37;;;;;;;33.70;22.77;;;;;;;3.67;90.70;98974.09;4946650;28;20541;-74
2021/04/28 04:05:03;;;;;;;44.63;23.30;;;;;;;3.70;90.77;98976.31;4949842;28;20035;-73
2021/04/28 04:07:29;;;;;;;45.35;21.17;;;;;;;3.70;90.77;98972.84;4947158;28;20122;-72
2021/04/28 04:09:54;;;;;;;41.45;20.77;;;;;;;3.70;90.61;98972.84;4951694;28;20122;-74
2021/04/28 04:12:20;;;;;;;41.47;20.45;;;;;;;3.65;90.84;98969.00;4950148;28;20094;-73
2021/04/28 04:14:45;;;;;;;40.78;20.63;;;;;;;3.74;90.67;98974.06;4949687;28;20042;-73
2021/04/28 04:17:11;;;;;;;41.45;19.75;;;;;;;3.79;90.61;98977.69;4951581;28;20042;-73
2021/04/28 04:19:37;;;;;;;42.72;19.38;;;;;;;3.72;90.88;98970.78;4936064;28;20035;-73
2021/04/28 04:22:03;;;;;;;43.63;20.00;;;;;;;3.72;90.85;98971.59;4954073;28;20508;-73
2021/04/28 04:24:28;;;;;;;37.15;19.67;;;;;;;3.75;90.98;98975.69;4950767;28;20059;-73
2021/04/28 04:26:54;;;;;;;36.13;19.58;;;;;;;3.80;90.33;98973.19;4954650;29;20114;-73
2021/04/28 04:29:20;;;;;;;32.35;20.58;;;;;;;3.80;89.84;98966.00;4949941;28;20631;-72
2021/04/28 04:31:46;;;;;;;42.05;20.83;;;;;;;3.79;90.70;98974.22;4952739;28;20035;-74
2021/04/28 04:34:13;;;;;;;39.40;20.70;;;;;;;3.81;90.54;98975.63;4948363;28;20087;-74
2021/04/28 04:36:39;;;;;;;30.77;20.08;;;;;;;3.80;89.94;98976.66;4937870;28;20031;-74
2021/04/28 04:39:05;;;;;;;36.55;20.15;;;;;;;3.86;90.36;98969.66;4945335;28;20393;-74
2021/04/28 04:41:32;;;;;;;32.33;19.45;;;;;;;3.86;90.11;98972.31;4952784;28;20035;-74
2021/04/28 04:43:58;;;;;;;34.72;19.85;;;;;;;3.77;89.81;98979.75;4946872;28;20043;-74
2021/04/28 04:46:23;;;;;;;39.67;20.33;;;;;;;3.80;90.20;98973.19;4949074;28;20031;-73
2021/04/28 04:48:49;;;;;;;44.65;20.48;;;;;;;3.80;89.86;98967.84;4953675;28;20035;-73
2021/04/28 04:51:15;;;;;;;49.20;20.98;;;;;;;3.80;89.65;98973.19;4946263;28;20041;-73
2021/04/28 04:53:40;;;;;;;49.08;21.25;;;;;;;3.81;89.56;98975.63;4945332;28;20057;-72
2021/04/28 04:56:06;;;;;;;42.35;19.67;;;;;;;3.78;89.39;98975.25;4952851;28;20043;-73
2021/04/28 04:58:32;;;;;;;40.10;20.40;;;;;;;3.84;89.31;98976.22;4943848;28;20034;-72
2021/04/28 05:00:58;;;;;;;38.00;20.13;;;;;;;3.79;89.98;98971.56;4937235;28;20042;-73
2021/04/28 05:03:23;;;;;;;46.80;21.35;;;;;;;3.79;89.57;98971.56;4948163;28;20309;-73
2021/04/28 05:05:49;;;;;;;43.38;21.88;;;;;;;3.75;89.66;98976.47;4945916;28;20107;-73
2021/04/28 05:08:14;;;;;;;71.30;22.15;;;;;;;3.78;89.67;98972.59;4948732;28;20474;-72
2021/04/28 05:10:41;;;;;;;191.45;30.30;;;;;;;3.78;89.75;98972.59;4943320;28;20551;-73
2021/04/28 05:13:07;;;;;;;64.57;24.48;;;;;;;3.82;90.09;98971.13;4947014;28;20529;-73
2021/04/28 05:15:32;;;;;;;75.68;25.23;;;;;;;3.80;90.15;98976.66;4939322;28;20043;-73
2021/04/28 05:17:59;;;;;;;93.15;25.75;;;;;;;3.83;89.64;98972.75;4930472;29;20040;-74
2021/04/28 05:20:26;;;;;;;51.60;23.88;;;;;;;3.86;89.21;98974.16;4950207;28;20035;-74
2021/04/28 05:22:51;;;;;;;44.38;22.38;;;;;;;3.82;89.68;98973.78;4945388;28;20101;-74
2021/04/28 05:25:17;;;;;;;75.28;25.58;;;;;;;3.86;90.10;98977.63;4940229;28;20537;-75
2021/04/28 05:27:43;;;;;;;54.40;25.17;;;;;;;3.86;89.46;98966.16;4948795;28;20023;-73
2021/04/28 05:30:10;;;;;;;84.50;29.40;;;;;;;3.88;89.80;98974.75;4950366;28;20097;-74
2021/04/28 05:32:36;;;;;;;46.80;25.48;;;;;;;3.88;89.62;98977.41;4947596;28;20028;-74
2021/04/28 05:35:04;;;;;;;54.20;26.10;;;;;;;3.93;89.76;98982.91;4951069;28;20039;-74
2021/04/28 05:37:30;;;;;;;94.88;29.02;;;;;;;3.93;89.93;98978.41;4940681;28;20063;-70
2021/04/28 05:39:55;;;;;;;68.75;27.52;;;;;;;3.99;89.35;98979.38;4951936;28;20113;-71
2021/04/28 05:42:21;;;;;;;42.30;24.92;;;;;;;4.02;88.94;98973.59;4944197;28;20119;-71
2021/04/28 05:44:47;;;;;;;104.78;28.52;;;;;;;4.10;89.34;98986.66;4946989;28;20043;-71
2021/04/28 05:47:13;;;;;;;54.40;27.27;;;;;;;4.09;89.69;98989.53;4944980;28;20023;-70
2021/04/28 05:49:39;;;;;;;55.22;26.75;;;;;;;4.15;89.31;98974.50;4948499;28;20037;-71
2021/04/28 05:52:05;;;;;;;58.55;27.13;;;;;;;4.18;89.02;98990.06;4942769;28;20114;-70
2021/04/28 05:54:32;;;;;;;51.75;25.20;;;;;;;4.17;88.63;98993.75;4937810;28;20114;-70
2021/04/28 05:56:58;;;;;;;58.50;25.60;;;;;;;4.21;88.94;98989.63;4938520;28;20035;-70
2021/04/28 05:59:24;;;;;;;55.15;26.88;;;;;;;4.15;89.01;98979.84;4942298;28;20504;-70
2021/04/28 06:01:50;;;;;;;60.50;28.67;;;;;;;4.23;89.25;98991.06;4941048;28;20066;-70
2021/04/28 06:04:16;;;;;;;70.22;28.05;;;;;;;4.26;88.91;98992.44;4935099;28;20028;-70
2021/04/28 06:06:43;;;;;;;61.78;27.50;;;;;;;4.35;89.26;98988.47;4935767;28;20074;-70
2021/04/28 06:09:08;;;;;;;52.28;25.17;;;;;;;4.33;88.76;98979.06;4920695;29;20107;-66
2021/04/28 06:11:34;;;;;;;50.70;25.70;;;;;;;4.24;88.68;98984.69;4937413;28;20497;-65
2021/04/28 06:14:00;;;;;;;65.45;27.00;;;;;;;4.44;89.32;98990.88;4939715;28;20134;-69
2021/04/28 06:16:25;;;;;;;52.15;26.33;;;;;;;4.50;88.71;98982.78;4943824;28;20096;-70
2021/04/28 06:18:52;;;;;;;69.13;26.20;;;;;;;4.55;87.97;98976.81;4938892;28;20033;-72
2021/04/28 06:21:17;;;;;;;77.18;26.48;;;;;;;4.54;88.25;98983.19;4946485;28;20074;-69
2021/04/28 06:23:43;;;;;;;58.75;25.17;;;;;;;4.54;88.13;98977.84;4942882;28;20062;-66
2021/04/28 06:26:09;;;;;;;59.45;25.63;;;;;;;4.64;88.04;98982.66;4943159;28;20082;-68
2021/04/28 06:28:35;;;;;;;45.67;23.75;;;;;;;4.64;88.22;98979.97;4944976;28;20043;-70
2021/04/28 06:31:01;;;;;;;58.58;23.50;;;;;;;4.73;87.42;98975.16;4937295;28;20504;-72
2021/04/28 06:33:27;;;;;;;67.60;24.33;;;;;;;4.85;88.05;98973.38;4941177;28;20126;-69
2021/04/28 06:35:53;;;;;;;66.13;23.30;;;;;;;4.85;87.29;98978.72;4939107;28;20039;-65
2021/04/28 06:38:19;;;;;;;46.83;21.38;;;;;;;4.91;87.38;98972.50;4949921;28;20082;-66
2021/04/28 06:40:45;;;;;;;45.50;21.80;;;;;;;4.98;86.82;98975.06;4945672;28;20035;-65
2021/04/28 06:43:12;;;;;;;43.92;20.38;;;;;;;5.05;85.49;98967.78;4943639;28;20046;-65
2021/04/28 06:45:38;;;;;;;47.13;20.13;;;;;;;4.96;86.65;98977.13;4948288;28;20091;-66
2021/04/28 06:48:07;;;;;;;43.60;19.70;;;;;;;4.93;86.72;98969.56;4947816;28;20040;-65
2021/04/28 06:50:34;;;;;;;50.45;21.13;;;;;;;5.04;86.81;98973.34;4949515;28;20023;-66
2021/04/28 06:53:00;;;;;;;44.95;18.45;;;;;;;5.08;85.53;98971.88;4942029;28;20552;-65
2021/04/28 06:55:25;;;;;;;48.22;18.40;;;;;;;5.08;85.73;98972.66;4941063;28;20027;-69
2021/04/28 06:57:56;;;;;;;51.42;18.20;;;;;;;5.01;86.27;98982.63;4936968;28;20031;-68
2021/04/28 07:00:27;;;;;;;39.42;18.52;;;;;;;5.06;85.80;98976.63;4942647;28;20046;-69
2021/04/28 07:02:54;;;;;;;38.95;17.48;;;;;;;5.13;85.93;98985.34;4951298;29;20035;-69
2021/04/28 07:05:21;;;;;;;35.17;17.45;;;;;;;5.17;86.11;98981.19;4948709;28;20059;-69
2021/04/28 07:07:46;;;;;;;38.03;18.05;;;;;;;5.18;86.39;98980.16;4948381;28;20035;-70
2021/04/28 07:10:14;;;;;;;49.60;19.15;;;;;;;5.24;86.05;98987.25;4951438;28;20031;-69
2021/04/28 07:12:39;;;;;;;38.95;17.35;;;;;;;5.30;85.25;98982.88;4953987;28;20034;-69
2021/04/28 07:15:06;;;;;;;40.78;16.58;;;;;;;5.38;85.11;98981.72;4951471;28;20039;-69
2021/04/28 07:17:33;;;;;;;40.03;16.17;;;;;;;5.41;86.01;98987.44;4945488;28;20118;-69
2021/04/28 07:20:01;;;;;;;44.25;15.30;;;;;;;5.60;84.62;98991.91;4946131;28;20036;-69
2021/04/28 07:22:26;;;;;;;36.20;14.80;;;;;;;5.62;83.60;98984.47;4943729;28;20082;-69
2021/04/28 07:24:54;;;;;;;32.97;14.55;;;;;;;5.66;84.40;98994.47;4952161;28;20023;-71
2021/04/28 07:27:21;;;;;;;43.67;13.80;;;;;;;5.70;84.58;98990.31;4950628;28;20118;-67
2021/04/28 07:29:47;;;;;;;47.70;13.35;;;;;;;5.66;83.80;98991.81;4954417;28;20027;-71
2021/04/28 07:32:13;;;;;;;43.08;13.50;;;;;;;5.65;83.50;98997.38;4948326;28;20036;-69
2021/04/28 07:34:38;;;;;;;32.65;13.75;;;;;;;5.71;84.37;98991.94;4945165;28;20066;-68
2021/04/28 07:37:04;;;;;;;40.78;12.57;;;;;;;5.81;83.01;98995.91;4953305;28;20038;-67
2021/04/28 07:39:30;;;;;;;38.42;13.35;;;;;;;5.78;83.98;99001.72;4947758;28;20493;-67
2021/04/28 07:41:56;;;;;;;44.15;12.75;;;;;;;5.67;83.55;99005.97;4954296;28;20042;-68
2021/04/28 07:44:24;;;;;;;40.78;13.30;;;;;;;5.62;83.22;99003.16;4950469;28;20107;-67
2021/04/28 07:46:52;;;;;;;33.25;12.85;;;;;;;5.89;83.37;98997.41;4950485;28;20371;-67
2021/04/28 07:49:18;;;;;;;32.25;12.63;;;;;;;5.79;83.59;99011.34;4952721;28;20481;-67
2021/04/28 07:51:44;;;;;;;36.35;13.02;;;;;;;5.80;82.92;99013.00;4922765;29;20043;-68
2021/04/28 07:54:10;;;;;;;35.00;12.32;;;;;;;5.97;83.16;99007.78;4942688;28;20090;-68
2021/04/28 07:56:36;;;;;;;29.67;10.90;;;;;;;6.21;80.77;99010.53;4942174;28;20111;-68
2021/04/28 07:59:03;;;;;;;33.38;10.57;;;;;;;6.31;81.02;99013.44;4947158;28;20038;-68
2021/04/28 08:01:30;;;;;;;32.20;10.13;;;;;;;6.34;81.09;99017.50;4940752;28;20039;-67
2021/04/28 08:03:55;;;;;;;42.55;10.43;;;;;;;6.30;80.90;99017.16;4930031;29;20048;-67
2021/04/28 08:06:21;;;;;;;35.47;10.85;;;;;;;6.35;79.65;99008.41;4946795;28;20039;-67
2021/04/28 08:08:47;;;;;;;34.17;10.02;;;;;;;6.21;80.46;99018.56;4948224;28;20039;-67
2021/04/28 08:11:13;;;;;;;35.72;9.07;;;;;;;6.19;80.15;99005.41;4954529;28;20066;-68
2021/04/28 08:13:39;;;;;;;33.58;8.02;;;;;;;6.08;78.69;99019.56;4949491;28;20062;-68
2021/04/28 08:16:07;;;;;;;34.13;8.30;;;;;;;6.00;79.43;99013.53;4951921;28;20122;-67
2021/04/28 08:18:32;;;;;;;29.58;7.90;;;;;;;5.86;78.06;99017.41;4949130;28;20031;-69
2021/04/28 08:20:58;;;;;;;28.17;8.10;;;;;;;5.97;78.61;99030.00;4951224;28;20043;-67
2021/04/28 08:23:29;;;;;;;23.83;6.82;;;;;;;5.98;77.62;99020.91;4941690;28;20040;-67
2021/04/28 08:26:01;;;;;;;32.30;7.55;;;;;;;6.04;77.40;99021.06;4946045;28;20139;-69
2021/04/28 08:28:27;;;;;;;28.70;8.10;;;;;;;6.05;77.26;99023.50;4935987;28;20035;-69
2021/04/28 08:30:54;;;;;;;27.98;7.68;;;;;;;6.13;77.28;99023.16;4933846;29;20043;-67
2021/04/28 08:33:20;;;;;;;33.30;7.60;;;;;;;6.32;76.44;99024.94;4947248;28;20043;-68
2021/04/28 08:35:46;;;;;;;37.38;7.35;;;;;;;6.29;75.36;99042.28;4939102;28;20042;-67
2021/04/28 08:38:11;;;;;;;21.95;6.63;;;;;;;6.37;74.74;99027.72;4942048;28;20489;-67
2021/04/28 08:40:38;;;;;;;26.30;7.32;;;;;;;6.50;74.89;99035.50;4948458;28;20051;-69
2021/04/28 08:43:05;;;;;;;24.00;6.95;;;;;;;6.48;72.67;99037.63;4948330;28;20039;-68
2021/04/28 08:45:30;;;;;;;19.77;6.13;;;;;;;6.59;72.42;99044.03;4950252;28;20819;-68
2021/04/28 08:47:57;;;;;;;35.13;7.10;;;;;;;6.67;72.70;99048.19;4944808;28;20046;-66
2021/04/28 08:50:22;;;;;;;20.80;6.95;;;;;;;6.77;71.06;99037.69;4944703;28;20046;-68
2021/04/28 08:52:51;;;;;;;22.38;7.18;;;;;;;6.93;70.46;99043.38;4943792;28;20525;-68
2021/04/28 08:55:17;;;;;;;23.92;6.50;;;;;;;6.94;67.69;99043.16;4948218;28;20073;-68
2021/04/28 08:57:43;;;;;;;23.10;7.75;;;;;;;6.93;70.02;99051.41;4932122;29;20031;-69
2021/04/28 09:00:11;;;;;;;21.88;6.63;;;;;;;6.99;68.36;99053.97;4951437;28;20039;-68
2021/04/28 09:02:54;;;;;;;25.13;7.18;;;;;;;7.06;66.69;99047.69;4941040;28;20507;-68
2021/04/28 09:05:20;;;;;;;23.05;6.78;;;;;;;7.03;67.59;99054.31;4941118;28;20035;-68
2021/04/28 09:07:46;;;;;;;41.85;7.55;;;;;;;6.98;69.37;99056.88;4949747;28;20370;-68
2021/04/28 09:10:17;;;;;;;24.77;7.40;;;;;;;7.13;67.07;99067.09;4940437;28;20082;-68
2021/04/28 09:12:50;;;;;;;23.20;6.43;;;;;;;7.01;67.89;99061.75;4951759;28;20031;-68
2021/04/28 09:15:30;;;;;;;22.93;6.13;;;;;;;6.93;67.26;99067.47;4951261;28;20031;-68
2021/04/28 09:17:56;;;;;;;22.35;7.30;;;;;;;6.76;67.27;99073.53;4953927;28;20456;-68
2021/04/28 09:20:33;;;;;;;18.88;6.20;;;;;;;6.77;66.97;99055.63;4950001;28;20499;-68
2021/04/28 09:23:07;;;;;;;27.60;6.60;;;;;;;6.80;66.40;99057.84;4950416;28;20068;-68
2021/04/28 09:25:53;;;;;;;24.67;6.22;;;;;;;6.80;66.17;99068.56;4952260;28;20114;-68
2021/04/28 09:28:28;;;;;;;23.15;6.20;;;;;;;6.86;66.34;99068.41;4941959;28;20050;-67
2021/04/28 09:31:05;;;;;;;21.55;6.82;;;;;;;6.99;66.57;99063.84;4947683;28;20548;-68
2021/04/28 09:33:40;;;;;;;22.77;5.63;;;;;;;7.06;65.28;99074.44;4934311;28;20098;-68
2021/04/28 09:36:11;;;;;;;22.02;6.68;;;;;;;7.20;66.82;99069.66;4945611;29;20039;-68
2021/04/28 09:39:06;;;;;;;16.73;6.35;;;;;;;7.27;64.57;99073.81;4930026;29;20497;-69
2021/04/28 09:41:33;;;;;;;25.55;6.35;;;;;;;7.27;63.33;99064.97;4948412;28;20060;-67
2021/04/28 09:44:00;;;;;;;29.38;6.78;;;;;;;7.38;63.79;99074.84;4951000;28;20457;-67
2021/04/28 09:46:26;;;;;;;16.38;5.20;;;;;;;7.57;61.88;99070.09;4947432;28;20082;-67
2021/04/28 09:48:59;;;;;;;26.65;6.32;;;;;;;7.50;61.03;99077.47;4949194;28;20027;-68
2021/04/28 09:51:36;;;;;;;16.95;5.55;;;;;;;7.32;60.10;99071.25;4935016;28;20043;-67
2021/04/28 09:54:17;;;;;;;18.95;4.93;;;;;;;7.42;59.39;99080.53;4943159;28;20046;-68
2021/04/28 09:56:44;;;;;;;18.52;5.85;;;;;;;7.38;59.68;99074.03;4950946;28;20031;-66
2021/04/28 09:59:10;;;;;;;18.50;6.22;;;;;;;7.41;59.89;99079.72;4939084;28;20039;-66
2021/04/28 10:01:38;;;;;;;18.27;6.00;;;;;;;7.46;59.31;99079.84;4946994;28;20040;-67
2021/04/28 10:04:06;;;;;;;23.77;6.13;;;;;;;7.54;60.79;99083.97;4945935;28;20054;-66
2021/04/28 10:06:49;;;;;;;17.17;5.25;;;;;;;7.70;58.29;99068.19;4950230;28;20125;-66
2021/04/28 10:09:26;;;;;;;21.20;6.55;;;;;;;7.74;58.22;99072.00;4947835;28;20513;-66
2021/04/28 10:11:52;;;;;;;17.08;6.00;;;;;;;8.00;59.70;99069.81;4951646;28;20035;-66
2021/04/28 10:14:18;;;;;;;16.00;5.93;;;;;;;8.02;57.75;99071.19;4950915;28;20046;-66
2021/04/28 10:16:46;;;;;;;21.27;6.00;;;;;;;8.02;57.54;99073.06;4951613;28;20126;-66
2021/04/28 10:19:17;;;;;;;18.35;5.90;;;;;;;7.90;57.90;99063.19;4946893;28;20114;-66
2021/04/28 10:21:46;;;;;;;21.38;5.72;;;;;;;7.89;58.82;99071.50;4950636;28;20036;-66
2021/04/28 10:24:13;;;;;;;17.40;5.57;;;;;;;7.85;57.79;99065.78;4948849;28;20035;-67
2021/04/28 10:26:40;;;;;;;25.08;5.97;;;;;;;8.19;58.25;99071.22;4949745;28;20762;-68
2021/04/28 10:29:08;;;;;;;27.70;5.93;;;;;;;8.34;57.95;99080.56;4945298;28;20118;-67
2021/04/28 10:31:36;;;;;;;13.90;6.28;;;;;;;7.90;56.44;99071.22;4951188;28;20090;-67
2021/04/28 10:34:04;;;;;;;19.45;6.28;;;;;;;7.90;57.41;99073.91;4952504;28;20035;-67
2021/04/28 10:36:30;;;;;;;16.45;6.40;;;;;;;8.01;58.19;99069.56;4947095;28;20035;-67
2021/04/28 10:38:56;;;;;;;13.80;5.97;;;;;;;8.14;58.95;99073.81;4947725;28;20123;-67
2021/04/28 10:41:41;;;;;;;21.27;6.03;;;;;;;8.08;56.22;99076.63;4949624;28;20039;-68
2021/04/28 10:44:44;;;;;;;15.25;5.88;;;;;;;7.86;57.12;99080.00;4950708;28;20059;-67
2021/04/28 10:47:24;;;;;;;16.55;5.82;;;;;;;7.67;57.39;99085.56;4946087;28;20047;-67
2021/04/28 10:50:08;;;;;;;14.70;5.85;;;;;;;7.62;57.65;99078.25;4950198;28;20347;-67
2021/04/28 10:52:36;;;;;;;19.75;6.03;;;;;;;7.56;59.02;99073.84;4951778;29;20532;-67
2021/04/28 10:55:04;;;;;;;20.67;5.88;;;;;;;7.55;59.22;99082.13;4932205;28;20061;-67
2021/04/28 10:57:39;;;;;;;15.63;6.30;;;;;;;7.63;60.28;99084.44;4938159;28;20523;-66
2021/04/28 11:00:20;;;;;;;23.27;5.90;;;;;;;7.63;58.08;99081.75;4955161;28;20043;-66
2021/04/28 11:02:46;;;;;;;20.70;5.53;;;;;;;7.54;58.51;99081.31;4945777;28;20396;-68
2021/04/28 11:05:28;;;;;;;21.30;5.72;;;;;;;7.46;58.00;99087.88;4945031;28;20470;-68
2021/04/28 11:07:56;;;;;;;14.13;5.65;;;;;;;7.45;58.60;99083.56;4942154;28;20027;-68
2021/04/28 11:10:27;;;;;;;15.38;5.55;;;;;;;7.42;59.44;99083.22;4949367;28;20139;-68
2021/04/28 11:13:09;;;;;;;18.15;5.28;;;;;;;7.23;59.65;99086.06;4946334;28;20062;-68
2021/04/28 11:15:57;;;;;;;12.00;5.15;;;;;;;7.20;58.95;99083.06;4946959;28;20032;-67
2021/04/28 11:18:31;;;;;;;11.00;5.45;;;;;;;7.24;56.03;99089.56;4953279;28;20027;-67
2021/04/28 11:21:27;;;;;;;9.77;5.10;;;;;;;7.15;55.29;99089.09;4947329;28;20043;-67
2021/04/28 11:24:06;;;;;;;14.93;5.28;;;;;;;7.15;56.66;99092.63;4925673;28;20052;-66
2021/04/28 11:26:34;;;;;;;8.65;4.65;;;;;;;7.26;55.38;99090.16;4948479;28;20371;-67
2021/04/28 11:29:01;;;;;;;14.43;5.30;;;;;;;7.38;55.40;99080.22;4934716;28;20134;-67